香港 の空港の天気 - METARとTAF

香港国際空港 ( VHHH / HKG ) - 香港 赤リョウ角
飛行場実況気象(Metar)
観測時間07/23 02:00 HKT (07/22 18:00 UTC)
風向・風速東南東 2m/s
視程10km以上
天気現象
少しの雲 雲底高度 550m
気温29℃
湿度66%
気圧1001hPa
METARVHHH 221800Z 12003KT 070V190 9999 FEW018 29/22 Q1001 NOSIG
過去の天気等 Google飛行場航空写真 Wunderground天気予報

過去48時間のMETAR

飛行場予報(TAF)
発表時間: 7/23 01:00 HKT (7/22 17:00 UTC)
予報対象時間: 23日2時 HKT ~ 24日8時 HKT
風向・風速南南東 5m/s
視程10km以上
少しの雲 雲底高度 610m
23日2時 HKT ~ 23日8時 HKT に一時的に
風向・風速東 3m/s
23日5時 HKT ~ 23日10時 HKT に一時的に
視程4000m
天気現象しゅう雨
少しの積乱雲 雲底高度 460m
全天の4割程度の雲 雲底高度 760m
23日10時 HKT ~ 23日16時 HKT に一時的に
風向・風速不定 10m/s 瞬間風速 15m/s
視程2000m
天気現象雷雨 しゅう雨
少しの積乱雲 雲底高度 300m
全天の4割程度の雲 雲底高度 610m
23日16時 HKT ~ 23日20時 HKT に一時的に
風向・風速南 8m/s 瞬間風速 13m/s
視程3000m
天気現象しゅう雨
少しの積乱雲 雲底高度 370m
全天の4割程度の雲 雲底高度 610m
TAF VHHH 221700Z 2218/2324 15010KT 9999 FEW020 TX31/2306Z TN27/2222Z TN28/2322Z
TEMPO 2218/2224 09005KT
TEMPO 2221/2302 4000 SHRA FEW015CB SCT025
TEMPO 2302/2308 VRB20G30KT 2000 TSRA SHRA FEW010CB SCT020
TEMPO 2308/2312 18015G25KT 3000 SHRA FEW012CB SCT020